Bludenz, Austria
Current Conditions -  °F | °C
As of 6:50 AM on Friday 31 Oct 2014 (Local Time) from LSZR Reporting Station
Haze Haze  
Wind Chill: 39°   Ceiling: Unl
Heat Index: 39°   Visibility: 2.9mi
Dew Point: 39°   Wind: 1mph
Humidity: 100%   Direction: NA
Pressure: 30.3"   Gusts: NA
Location:  47.16°N, 9.82°E
Report Text: LSZR 310450Z AUTO VRB01KT 4700 BR NCD 04/04 Q1026
Loading
Personal Weather Stations






























Interactive Weather Map
Tropical Storm Tracking
New forecast layout! Learn more

10-Day Weather Forecast

Advertisements
Track Severe Weather on mobile